createdAt,value
2022-12-29T00:01:01.988Z,99581.94
2022-12-29T00:03:30.047Z,99578.00
2022-12-29T00:05:59.556Z,99578.25
2022-12-29T00:08:40.584Z,99577.75
2022-12-29T00:11:09.609Z,99576.53
2022-12-29T00:13:55.112Z,99559.97
2022-12-29T00:16:23.070Z,99568.78
2022-12-29T00:18:51.012Z,99565.41
2022-12-29T00:21:39.556Z,99572.91
2022-12-29T00:24:26.432Z,99560.81
2022-12-29T00:27:17.010Z,99580.88
2022-12-29T00:30:03.615Z,99593.94
2022-12-29T00:32:48.348Z,99589.38
2022-12-29T00:35:23.532Z,99585.13
2022-12-29T00:38:11.022Z,99585.88
2022-12-29T00:40:56.536Z,99591.47
2022-12-29T00:43:41.917Z,99570.91
2022-12-29T00:46:14.223Z,99577.94
2022-12-29T00:49:02.956Z,99585.25
2022-12-29T00:51:33.697Z,99590.84
2022-12-29T00:54:03.345Z,99576.63
2022-12-29T00:56:31.562Z,99599.25
2022-12-29T00:59:02.441Z,99599.41
2022-12-29T01:01:30.704Z,99596.13
2022-12-29T01:04:03.729Z,99568.53
2022-12-29T01:06:31.786Z,99573.81
2022-12-29T01:09:17.051Z,99557.06
2022-12-29T01:11:46.764Z,99576.41
2022-12-29T01:14:14.996Z,99583.94
2022-12-29T01:16:43.454Z,99578.03
2022-12-29T01:19:11.466Z,99586.78
2022-12-29T01:21:39.311Z,99576.44
2022-12-29T01:24:07.769Z,99568.72
2022-12-29T01:26:35.900Z,99557.50
2022-12-29T01:29:05.157Z,99562.09
2022-12-29T01:31:33.596Z,99527.97
2022-12-29T01:34:01.602Z,99552.66
2022-12-29T01:36:29.658Z,99542.22
2022-12-29T01:38:57.625Z,99527.56
2022-12-29T01:41:25.667Z,99546.34
2022-12-29T01:43:56.034Z,99537.19
2022-12-29T01:46:29.563Z,99538.19
2022-12-29T01:49:02.821Z,99542.31
2022-12-29T01:51:33.845Z,99550.56
2022-12-29T01:54:05.285Z,99557.41
2022-12-29T01:56:33.424Z,99556.72
2022-12-29T01:59:07.441Z,99534.25
2022-12-29T02:01:36.882Z,99554.03
2022-12-29T02:04:05.504Z,99558.78
2022-12-29T02:06:37.303Z,99551.47
2022-12-29T02:09:05.434Z,99562.72
2022-12-29T02:11:33.931Z,99547.50
2022-12-29T02:14:03.771Z,99562.19
2022-12-29T02:16:51.392Z,99560.38
2022-12-29T02:19:49.652Z,99560.78
2022-12-29T02:22:29.467Z,99555.94
2022-12-29T02:25:38.810Z,99535.56
2022-12-29T02:28:32.677Z,99551.75
2022-12-29T02:31:10.691Z,99543.81
2022-12-29T02:33:55.348Z,99554.03
2022-12-29T02:36:32.169Z,99546.19
2022-12-29T02:39:09.338Z,99549.44
2022-12-29T02:41:47.706Z,99549.84
2022-12-29T02:44:26.927Z,99529.00
2022-12-29T02:47:02.676Z,99516.53
2022-12-29T02:49:38.834Z,99499.97
2022-12-29T02:52:10.699Z,99520.22
2022-12-29T02:54:43.803Z,99533.41
2022-12-29T02:57:18.273Z,99530.63
2022-12-29T02:59:49.374Z,99523.03
2022-12-29T03:02:33.117Z,99527.50
2022-12-29T03:05:17.082Z,99529.41
2022-12-29T03:07:54.314Z,99519.94
2022-12-29T03:10:32.841Z,99510.53
2022-12-29T03:13:24.736Z,99518.75
2022-12-29T03:16:07.505Z,99510.44
2022-12-29T03:18:47.920Z,99512.97
2022-12-29T03:21:21.533Z,99517.69
2022-12-29T03:23:51.001Z,99506.22
2022-12-29T03:26:21.736Z,99500.06
2022-12-29T03:28:54.934Z,99493.78
2022-12-29T03:31:25.664Z,99479.78
2022-12-29T03:33:57.495Z,99482.16
2022-12-29T03:36:31.994Z,99450.03
2022-12-29T03:39:06.029Z,99460.50
2022-12-29T03:41:35.824Z,99489.41
2022-12-29T03:44:03.880Z,99489.00
2022-12-29T03:46:31.937Z,99486.28
2022-12-29T03:49:01.559Z,99446.31
2022-12-29T03:51:29.452Z,99471.59
2022-12-29T03:53:57.423Z,99466.31
2022-12-29T03:56:25.235Z,99467.25
2022-12-29T03:58:52.991Z,99461.28
2022-12-29T04:01:21.027Z,99456.56
2022-12-29T04:03:49.149Z,99468.59
2022-12-29T04:06:18.314Z,99471.47
2022-12-29T04:08:46.310Z,99460.88
2022-12-29T04:11:14.281Z,99450.13
2022-12-29T04:13:42.415Z,99450.25
2022-12-29T04:16:10.477Z,99442.47
2022-12-29T04:18:38.359Z,99455.97
2022-12-29T04:21:06.469Z,99442.34
2022-12-29T04:23:39.051Z,99460.41
2022-12-29T04:26:08.501Z,99458.69
2022-12-29T04:28:36.536Z,99464.56
2022-12-29T04:31:05.321Z,99455.47
2022-12-29T04:33:33.501Z,99471.09
2022-12-29T04:36:01.899Z,99462.03
2022-12-29T04:38:29.767Z,99470.78
2022-12-29T04:41:01.336Z,99469.34
2022-12-29T04:43:29.265Z,99477.28
2022-12-29T04:45:57.218Z,99470.34
2022-12-29T04:48:25.178Z,99468.84
2022-12-29T04:50:52.996Z,99458.06
2022-12-29T04:53:21.054Z,99476.34
2022-12-29T04:55:51.001Z,99463.81
2022-12-29T04:58:22.933Z,99436.16
2022-12-29T05:00:51.989Z,99434.34
2022-12-29T05:03:20.003Z,99452.34
2022-12-29T05:05:47.938Z,99476.91
2022-12-29T05:08:15.766Z,99463.63
2022-12-29T05:10:46.875Z,99476.50
2022-12-29T05:13:15.138Z,99448.06
2022-12-29T05:15:49.713Z,99474.31
2022-12-29T05:18:18.188Z,99493.91
2022-12-29T05:20:46.429Z,99458.97
2022-12-29T05:23:14.434Z,99478.69
2022-12-29T05:25:42.413Z,99477.81
2022-12-29T05:28:10.293Z,99474.16
2022-12-29T05:30:38.108Z,99481.81
2022-12-29T05:33:07.688Z,99486.88
2022-12-29T05:35:35.744Z,99459.38
2022-12-29T05:38:03.654Z,99480.09
2022-12-29T05:40:31.500Z,99456.75
2022-12-29T05:42:59.286Z,99467.97
2022-12-29T05:45:27.158Z,99459.34
2022-12-29T05:47:55.008Z,99441.31
2022-12-29T05:50:24.206Z,99465.03
2022-12-29T05:52:52.190Z,99472.28
2022-12-29T05:55:20.082Z,99451.09
2022-12-29T05:57:48.024Z,99463.38
2022-12-29T06:00:16.817Z,99470.16
2022-12-29T06:02:44.845Z,99466.13
2022-12-29T06:05:12.913Z,99460.44
2022-12-29T06:07:42.070Z,99468.81
2022-12-29T06:10:10.416Z,99452.00
2022-12-29T06:12:38.185Z,99460.53
2022-12-29T06:15:07.757Z,99470.03
2022-12-29T06:17:35.562Z,99467.69
2022-12-29T06:20:03.767Z,99470.66
2022-12-29T06:22:31.655Z,99469.34
2022-12-29T06:25:04.936Z,99457.91
2022-12-29T06:27:33.740Z,99478.25
2022-12-29T06:30:02.034Z,99461.03
2022-12-29T06:32:29.983Z,99455.69
2022-12-29T06:34:57.863Z,99475.50
2022-12-29T06:37:25.755Z,99451.53
2022-12-29T06:39:53.679Z,99445.03
2022-12-29T06:42:22.763Z,99472.88
2022-12-29T06:44:50.743Z,99454.09
2022-12-29T06:47:18.534Z,99449.31
2022-12-29T06:49:46.631Z,99454.63
2022-12-29T06:52:14.474Z,99473.22
2022-12-29T06:54:42.356Z,99457.22
2022-12-29T06:57:10.484Z,99455.56
2022-12-29T06:59:39.660Z,99429.84
2022-12-29T07:02:07.867Z,99457.03
2022-12-29T07:04:35.814Z,99474.78
2022-12-29T07:07:03.942Z,99461.63
2022-12-29T07:09:31.794Z,99429.88
2022-12-29T07:11:59.850Z,99442.53
2022-12-29T07:14:28.081Z,99439.44
2022-12-29T07:16:57.364Z,99451.94
2022-12-29T07:19:25.156Z,99447.72
2022-12-29T07:21:52.919Z,99442.75
2022-12-29T07:24:20.708Z,99457.81
2022-12-29T07:26:48.457Z,99438.75
2022-12-29T07:29:16.181Z,99447.91
2022-12-29T07:31:44.187Z,99447.38
2022-12-29T07:34:13.451Z,99451.16
2022-12-29T07:36:41.271Z,99432.63
2022-12-29T07:39:09.339Z,99443.66
2022-12-29T07:41:37.113Z,99435.19
2022-12-29T07:44:05.452Z,99437.47
2022-12-29T07:46:53.873Z,99438.84
2022-12-29T07:49:22.341Z,99450.88
2022-12-29T07:51:50.199Z,99446.81
2022-12-29T07:54:19.230Z,99452.00
2022-12-29T07:56:47.291Z,99446.94
2022-12-29T07:59:15.160Z,99457.13
2022-12-29T08:01:43.174Z,99453.91
2022-12-29T08:04:11.043Z,99462.97
2022-12-29T08:06:40.238Z,99446.81
2022-12-29T08:09:14.993Z,99465.09
2022-12-29T08:11:46.233Z,99488.91
2022-12-29T08:14:13.999Z,99471.94
2022-12-29T08:16:41.953Z,99479.41
2022-12-29T08:19:12.323Z,99481.84
2022-12-29T08:21:42.192Z,99494.59
2022-12-29T08:24:10.777Z,99491.13
2022-12-29T08:26:38.927Z,99487.69
2022-12-29T08:29:06.826Z,99505.56
2022-12-29T08:31:34.604Z,99513.59
2022-12-29T08:34:04.201Z,99514.72
2022-12-29T08:36:32.517Z,99505.59
2022-12-29T08:39:01.794Z,99519.47
2022-12-29T08:41:29.638Z,99501.41
2022-12-29T08:43:57.604Z,99510.00
2022-12-29T08:46:25.501Z,99476.22
2022-12-29T08:48:53.285Z,99506.50
2022-12-29T08:51:24.833Z,99509.53
2022-12-29T08:53:53.205Z,99508.91
2022-12-29T08:56:24.665Z,99507.59
2022-12-29T08:58:52.450Z,99507.84
2022-12-29T09:01:21.091Z,99516.84
2022-12-29T09:06:40.502Z,99536.34
2022-12-29T09:09:09.089Z,99552.97
2022-12-29T09:11:38.487Z,99542.34
2022-12-29T09:14:06.625Z,99550.13
2022-12-29T09:16:35.251Z,99553.63
2022-12-29T09:19:04.017Z,99561.22
2022-12-29T09:21:31.927Z,99558.06
2022-12-29T09:23:59.847Z,99550.72
2022-12-29T09:26:27.695Z,99560.72
2022-12-29T09:28:57.777Z,99571.59
2022-12-29T09:31:26.187Z,99575.63
2022-12-29T09:33:54.121Z,99574.63
2022-12-29T09:36:21.909Z,99582.34
2022-12-29T09:38:49.645Z,99579.50
2022-12-29T09:41:22.828Z,99596.91
2022-12-29T09:44:05.198Z,99580.41
2022-12-29T09:46:38.333Z,99590.88
2022-12-29T09:49:18.385Z,99606.38
2022-12-29T09:51:50.282Z,99602.19
2022-12-29T09:54:41.355Z,99600.69
2022-12-29T09:57:19.937Z,99588.78
2022-12-29T09:59:52.406Z,99609.38
2022-12-29T10:02:33.720Z,99601.66
2022-12-29T10:05:02.246Z,99599.03
2022-12-29T10:07:46.722Z,99596.97
2022-12-29T10:10:29.380Z,99608.94
2022-12-29T10:13:21.102Z,99593.22
2022-12-29T10:16:02.830Z,99604.56
2022-12-29T10:18:46.804Z,99596.38
2022-12-29T10:21:26.979Z,99591.38
2022-12-29T10:23:55.762Z,99561.63
2022-12-29T10:26:28.467Z,99586.75
2022-12-29T10:28:59.798Z,99579.78
2022-12-29T10:31:35.948Z,99581.94
2022-12-29T10:34:12.252Z,99575.47
2022-12-29T10:36:44.053Z,99584.66
2022-12-29T10:39:16.537Z,99580.81
2022-12-29T10:41:50.518Z,99579.94
2022-12-29T10:44:20.285Z,99591.59
2022-12-29T10:46:56.726Z,99588.97
2022-12-29T10:49:28.550Z,99592.88
2022-12-29T10:52:00.281Z,99582.59
2022-12-29T10:54:34.625Z,99571.19
2022-12-29T10:57:07.434Z,99577.53
2022-12-29T10:59:37.551Z,99581.13
2022-12-29T11:02:37.192Z,99595.19
2022-12-29T11:05:12.099Z,99570.59
2022-12-29T11:07:40.546Z,99582.78
2022-12-29T11:10:20.220Z,99582.97
2022-12-29T11:12:58.225Z,99576.78
2022-12-29T11:15:26.403Z,99583.69
2022-12-29T11:18:00.300Z,99586.69
2022-12-29T11:20:32.169Z,99564.56
2022-12-29T11:23:01.124Z,99589.47
2022-12-29T11:25:29.112Z,99565.34
2022-12-29T11:28:00.217Z,99580.66
2022-12-29T11:30:30.577Z,99590.94
2022-12-29T11:33:00.141Z,99586.66
2022-12-29T11:35:37.057Z,99587.03
2022-12-29T11:38:06.460Z,99595.44
2022-12-29T11:40:41.253Z,99592.03
2022-12-29T11:43:23.787Z,99595.31
2022-12-29T11:45:54.730Z,99592.38
2022-12-29T11:48:27.451Z,99596.00
2022-12-29T11:51:01.237Z,99590.34
2022-12-29T11:53:33.296Z,99592.22
2022-12-29T11:56:04.609Z,99588.03
2022-12-29T11:58:34.615Z,99580.97
2022-12-29T12:01:06.004Z,99581.06
2022-12-29T12:03:40.187Z,99581.41
2022-12-29T12:06:13.825Z,99582.47
2022-12-29T12:08:47.234Z,99585.16
2022-12-29T12:11:18.537Z,99571.97
2022-12-29T12:13:55.389Z,99586.53
2022-12-29T12:16:26.717Z,99542.50
2022-12-29T12:19:03.084Z,99571.03
2022-12-29T12:21:40.429Z,99587.22
2022-12-29T12:24:29.197Z,99592.59
2022-12-29T12:27:04.391Z,99598.38
2022-12-29T12:29:40.482Z,99586.03
2022-12-29T12:32:17.238Z,99577.22
2022-12-29T12:34:49.981Z,99596.66
2022-12-29T12:37:32.190Z,99582.03
2022-12-29T12:40:30.850Z,99589.16
2022-12-29T12:43:14.481Z,99569.16
2022-12-29T12:45:51.358Z,99581.84
2022-12-29T12:48:41.007Z,99584.44
2022-12-29T12:51:20.716Z,99587.06
2022-12-29T12:54:16.307Z,99570.75
2022-12-29T12:56:57.874Z,99590.28
2022-12-29T12:59:49.659Z,99595.09
2022-12-29T13:02:34.242Z,99593.88
2022-12-29T13:05:26.781Z,99593.78
2022-12-29T13:08:15.834Z,99584.25
2022-12-29T13:10:53.570Z,99552.09
2022-12-29T13:13:47.466Z,99551.44
2022-12-29T13:16:29.098Z,99575.75
2022-12-29T13:19:05.846Z,99554.72
2022-12-29T13:21:56.149Z,99553.97
2022-12-29T13:24:37.150Z,99575.38
2022-12-29T13:27:16.334Z,99565.44
2022-12-29T13:29:49.219Z,99577.19
2022-12-29T13:32:28.262Z,99578.22
2022-12-29T13:35:13.664Z,99580.78
2022-12-29T13:37:50.364Z,99569.75
2022-12-29T13:40:25.154Z,99527.97
2022-12-29T13:42:54.233Z,99567.44
2022-12-29T13:45:24.869Z,99585.78
2022-12-29T13:47:58.007Z,99582.47
2022-12-29T13:50:30.447Z,99579.81
2022-12-29T13:53:10.730Z,99584.94
2022-12-29T13:55:48.983Z,99599.59
2022-12-29T13:58:26.556Z,99581.69
2022-12-29T14:00:59.532Z,99573.41
2022-12-29T14:03:49.032Z,99585.72
2022-12-29T14:06:24.992Z,99571.97
2022-12-29T14:08:56.068Z,99588.75
2022-12-29T14:11:31.585Z,99588.31
2022-12-29T14:14:00.397Z,99577.59
2022-12-29T14:16:32.226Z,99589.56
2022-12-29T14:19:12.083Z,99585.69
2022-12-29T14:21:40.784Z,99600.94
2022-12-29T14:24:46.512Z,99617.53
2022-12-29T14:27:55.306Z,99608.22
2022-12-29T14:30:59.709Z,99614.34
2022-12-29T14:33:30.625Z,99616.06
2022-12-29T14:36:19.177Z,99617.50
2022-12-29T14:38:47.993Z,99628.22
2022-12-29T14:41:35.945Z,99632.19
2022-12-29T14:44:19.174Z,99628.28
2022-12-29T14:46:51.398Z,99638.72
2022-12-29T14:49:22.523Z,99636.97
2022-12-29T14:51:56.867Z,99637.47
2022-12-29T14:54:52.351Z,99645.69
2022-12-29T14:57:38.222Z,99646.38
2022-12-29T15:00:21.934Z,99632.44
2022-12-29T15:02:52.589Z,99631.34
2022-12-29T15:05:38.818Z,99611.97
2022-12-29T15:08:14.898Z,99617.56
2022-12-29T15:10:56.148Z,99603.88
2022-12-29T15:13:26.799Z,99612.75
2022-12-29T15:15:56.251Z,99627.56
2022-12-29T15:18:27.759Z,99623.53
2022-12-29T15:20:58.523Z,99620.16
2022-12-29T15:23:26.831Z,99633.44
2022-12-29T15:25:57.594Z,99635.91
2022-12-29T15:28:26.318Z,99641.75
2022-12-29T15:30:57.521Z,99642.59
2022-12-29T15:33:28.838Z,99617.34
2022-12-29T15:36:04.340Z,99635.50
2022-12-29T15:38:39.971Z,99636.63
2022-12-29T15:41:15.554Z,99637.44
2022-12-29T15:43:56.730Z,99630.88
2022-12-29T15:46:26.276Z,99646.13
2022-12-29T15:48:54.284Z,99643.72
2022-12-29T15:51:29.296Z,99656.09
2022-12-29T15:53:57.676Z,99649.44
2022-12-29T15:56:25.995Z,99623.16
2022-12-29T15:58:54.078Z,99672.09
2022-12-29T16:01:30.269Z,99682.38
2022-12-29T16:04:00.971Z,99683.25
2022-12-29T16:06:32.244Z,99681.47
2022-12-29T16:09:03.464Z,99689.72
2022-12-29T16:11:36.207Z,99700.75
2022-12-29T16:14:09.836Z,99696.84
2022-12-29T16:16:41.812Z,99698.09
2022-12-29T16:19:15.831Z,99705.66
2022-12-29T16:21:44.416Z,99706.31
2022-12-29T16:24:17.720Z,99700.47
2022-12-29T16:26:51.617Z,99705.34
2022-12-29T16:29:22.649Z,99698.97
2022-12-29T16:32:01.122Z,99709.97
2022-12-29T16:34:33.480Z,99713.66
2022-12-29T16:37:03.547Z,99720.78
2022-12-29T16:39:35.249Z,99707.19
2022-12-29T16:42:03.362Z,99722.97
2022-12-29T16:44:34.935Z,99721.34
2022-12-29T16:47:18.338Z,99737.44
2022-12-29T16:49:52.280Z,99739.34
2022-12-29T16:52:29.518Z,99748.69
2022-12-29T16:55:03.053Z,99741.56
2022-12-29T16:57:34.724Z,99752.09
2022-12-29T17:00:07.441Z,99748.78
2022-12-29T17:02:48.191Z,99724.38
2022-12-29T17:05:19.820Z,99759.19
2022-12-29T17:07:49.802Z,99753.63
2022-12-29T17:10:20.239Z,99766.13
2022-12-29T17:12:50.905Z,99759.53
2022-12-29T17:15:33.197Z,99767.09
2022-12-29T17:18:02.762Z,99769.22
2022-12-29T17:20:32.280Z,99770.63
2022-12-29T17:23:00.717Z,99777.94
2022-12-29T17:25:33.193Z,99775.91
2022-12-29T17:28:07.364Z,99758.56
2022-12-29T17:30:36.237Z,99767.06
2022-12-29T17:33:08.786Z,99780.28
2022-12-29T17:35:36.912Z,99774.03
2022-12-29T17:38:07.018Z,99769.91
2022-12-29T17:40:35.021Z,99772.72
2022-12-29T17:43:02.909Z,99773.28
2022-12-29T17:45:33.390Z,99771.66
2022-12-29T17:48:01.855Z,99774.75
2022-12-29T17:50:32.673Z,99769.88
2022-12-29T17:53:02.688Z,99779.59
2022-12-29T17:55:37.140Z,99780.28
2022-12-29T17:58:18.069Z,99781.81
2022-12-29T18:00:46.565Z,99755.84
2022-12-29T18:03:16.387Z,99773.44
2022-12-29T18:05:45.955Z,99764.72
2022-12-29T18:08:13.797Z,99760.94
2022-12-29T18:10:43.413Z,99769.31
2022-12-29T18:13:21.241Z,99756.56
2022-12-29T18:15:50.252Z,99773.00
2022-12-29T18:18:20.097Z,99766.59
2022-12-29T18:20:51.612Z,99780.53
2022-12-29T18:23:22.178Z,99783.72
2022-12-29T18:25:53.821Z,99783.25
2022-12-29T18:28:21.991Z,99789.75
2022-12-29T18:30:50.395Z,99783.00
2022-12-29T18:33:23.386Z,99790.72
2022-12-29T18:36:02.443Z,99771.66
2022-12-29T18:38:30.641Z,99792.78
2022-12-29T18:41:01.013Z,99800.38
2022-12-29T18:43:28.899Z,99799.31
2022-12-29T18:45:57.006Z,99803.88
2022-12-29T18:48:24.777Z,99756.25
2022-12-29T18:50:53.885Z,99811.81
2022-12-29T18:53:24.495Z,99813.56
2022-12-29T18:55:53.183Z,99806.50
2022-12-29T18:58:21.137Z,99803.66
2022-12-29T19:00:49.053Z,99805.75
2022-12-29T19:03:19.739Z,99811.75
2022-12-29T19:05:48.998Z,99813.56
2022-12-29T19:08:18.678Z,99816.06
2022-12-29T19:10:46.872Z,99802.09
2022-12-29T19:13:17.572Z,99816.97
2022-12-29T19:15:46.479Z,99820.41
2022-12-29T19:21:07.237Z,99827.16
2022-12-29T19:23:36.585Z,99832.34
2022-12-29T19:26:04.634Z,99834.34
2022-12-29T19:28:32.795Z,99834.91
2022-12-29T19:31:03.715Z,99839.66
2022-12-29T19:33:31.730Z,99848.06
2022-12-29T19:36:01.162Z,99823.72
2022-12-29T19:38:29.093Z,99839.22
2022-12-29T19:40:58.564Z,99836.94
2022-12-29T19:43:26.532Z,99818.06
2022-12-29T19:45:54.377Z,99833.16
2022-12-29T19:48:22.175Z,99847.81
2022-12-29T19:50:50.232Z,99844.94
2022-12-29T19:53:18.396Z,99843.28
2022-12-29T19:55:47.947Z,99858.41
2022-12-29T19:58:17.196Z,99848.47
2022-12-29T20:00:45.377Z,99860.50
2022-12-29T20:03:13.525Z,99852.75
2022-12-29T20:05:41.585Z,99856.78
2022-12-29T20:08:09.689Z,99851.41
2022-12-29T20:10:37.638Z,99839.16
2022-12-29T20:13:07.961Z,99852.72
2022-12-29T20:15:37.329Z,99855.91
2022-12-29T20:18:13.804Z,99841.16
2022-12-29T20:20:43.159Z,99857.78
2022-12-29T20:23:11.668Z,99845.75
2022-12-29T20:25:45.315Z,99851.56
2022-12-29T20:28:16.953Z,99847.31
2022-12-29T20:30:46.458Z,99844.16
2022-12-29T20:33:14.525Z,99865.47
2022-12-29T20:35:42.425Z,99872.41
2022-12-29T20:38:10.364Z,99880.50
2022-12-29T20:40:45.939Z,99881.25
2022-12-29T20:43:15.763Z,99879.09
2022-12-29T20:45:44.486Z,99867.97
2022-12-29T20:48:14.307Z,99875.00
2022-12-29T20:50:42.570Z,99876.50
2022-12-29T20:53:11.610Z,99878.00
2022-12-29T20:55:41.173Z,99885.16
2022-12-29T20:58:25.853Z,99888.88
2022-12-29T21:00:54.116Z,99890.66
2022-12-29T21:03:23.571Z,99896.94
2022-12-29T21:05:53.676Z,99907.41
2022-12-29T21:08:22.158Z,99908.84
2022-12-29T21:10:51.374Z,99910.66
2022-12-29T21:13:19.563Z,99908.59
2022-12-29T21:15:47.708Z,99919.47
2022-12-29T21:18:16.051Z,99918.94
2022-12-29T21:20:45.439Z,99914.06
2022-12-29T21:23:13.933Z,99904.25
2022-12-29T21:25:45.117Z,99903.03
2022-12-29T21:28:13.261Z,99901.09
2022-12-29T21:30:42.231Z,99903.63
2022-12-29T21:33:10.336Z,99911.31
2022-12-29T21:35:38.986Z,99920.75
2022-12-29T21:38:08.300Z,99910.09
2022-12-29T21:40:38.307Z,99920.09
2022-12-29T21:43:06.553Z,99912.41
2022-12-29T21:45:34.348Z,99924.97
2022-12-29T21:48:24.940Z,99932.34
2022-12-29T21:51:11.788Z,99937.78
2022-12-29T21:53:43.405Z,99946.16
2022-12-29T21:56:14.370Z,99958.06
2022-12-29T21:59:01.755Z,99959.56
2022-12-29T22:01:49.144Z,99973.41
2022-12-29T22:04:36.407Z,99950.50
2022-12-29T22:07:25.025Z,99963.69
2022-12-29T22:10:15.466Z,99964.31
2022-12-29T22:13:03.014Z,99962.38
2022-12-29T22:15:33.643Z,99978.50
2022-12-29T22:18:02.635Z,99983.28
2022-12-29T22:20:34.973Z,99985.72
2022-12-29T22:23:03.459Z,99985.31
2022-12-29T22:25:32.900Z,99996.50
2022-12-29T22:28:00.955Z,99994.69
2022-12-29T22:30:29.486Z,99995.91
2022-12-29T22:32:58.872Z,99999.22
2022-12-29T22:35:26.761Z,99991.91
2022-12-29T22:37:55.048Z,100007.34
2022-12-29T22:40:23.046Z,100007.59
2022-12-29T22:42:52.377Z,100009.03
2022-12-29T22:45:20.417Z,99995.75
2022-12-29T22:47:48.390Z,100015.13
2022-12-29T22:50:17.130Z,99986.22
2022-12-29T22:52:45.036Z,99996.41
2022-12-29T22:55:12.906Z,100010.97
2022-12-29T22:57:40.791Z,100014.63
2022-12-29T23:00:11.083Z,100009.13
2022-12-29T23:02:40.725Z,100001.91
2022-12-29T23:05:09.635Z,100017.13
2022-12-29T23:07:38.332Z,100014.50
2022-12-29T23:10:07.240Z,100041.84
2022-12-29T23:12:35.377Z,100040.13
2022-12-29T23:15:03.329Z,100035.34
2022-12-29T23:17:33.234Z,100027.03
2022-12-29T23:20:01.935Z,100038.69
2022-12-29T23:22:29.966Z,100049.50
2022-12-29T23:24:58.460Z,100034.50
2022-12-29T23:27:26.503Z,100046.19
2022-12-29T23:29:54.873Z,100058.38
2022-12-29T23:32:23.187Z,100060.19
2022-12-29T23:34:53.343Z,100060.09
2022-12-29T23:37:21.138Z,100054.25
2022-12-29T23:39:49.485Z,100055.25
2022-12-29T23:42:17.391Z,100020.66
2022-12-29T23:44:45.765Z,100053.22
2022-12-29T23:47:14.322Z,100068.38
2022-12-29T23:49:42.326Z,100071.34
2022-12-29T23:52:12.312Z,100074.94
2022-12-29T23:54:40.816Z,100085.56
2022-12-29T23:57:10.850Z,100070.00
2022-12-29T23:59:39.056Z,100079.59
